Flight Track Log - Related Links

Times and Time Zones

All times are in EDT time to prevent confusion due to time zone crossing. See the KAP927 flight status page for this flight to view local times or setup timezone preferences in your user account.

Time Position Orientation Groundspeed Altitude Reporting Facility
EDT Latitude Longitude Course Direction KTS MPH feet Rate Location/Type
Wed 07:13:07 PM 43.3783 -74.3683 330° Northwest 161 185 8,100  Level Boston Center
Wed 07:14:07 PM 43.4153 -74.3981 330° Northwest 161 185 8,100  Level Boston Center
Wed 07:15:07 PM 43.4522 -74.4278 330° Northwest 161 185 8,100  Level Boston Center
Wed 07:16:07 PM 43.4892 -74.4578 329° Northwest 161 185 8,100  Level Boston Center
Wed 07:17:07 PM 43.5261 -74.4903 327° Northwest 161 185 8,100  Level Boston Center
Wed 07:18:07 PM 43.5631 -74.5203 330° Northwest 161 185 8,100  Level Boston Center
Wed 07:19:07 PM 43.6003 -74.5475 332° Northwest 161 185 8,100  Level Boston Center
Wed 07:20:07 PM 43.6369 -74.5803 327° Northwest 161 185 8,100  Level Boston Center
Wed 07:21:07 PM 43.6719 -74.6103 328° Northwest 161 185 8,100  Level Boston Center
Wed 07:22:07 PM 43.7067 -74.6403 328° Northwest 156 180 8,100  Level Boston Center
Wed 07:23:07 PM 43.7439 -74.6672 332° Northwest 156 180 8,100  Level Boston Center
Wed 07:24:07 PM 43.7786 -74.7003 326° Northwest 151 174 8,100  Level Boston Center
Wed 07:25:07 PM 43.8156 -74.7306 329° Northwest 151 174 8,100  Level Boston Center
Wed 07:26:07 PM 43.8525 -74.7606 330° Northwest 151 174 8,100  Level Boston Center
Wed 07:27:07 PM 43.8894 -74.7881 332° Northwest 151 174 8,100  Level Boston Center
Wed 07:28:07 PM 43.9261 -74.8211 327° Northwest 151 174 8,100  Level Boston Center
Wed 07:29:07 PM 43.9608 -74.8542 326° Northwest 151 174 8,100  Level Boston Center
Wed 07:30:07 PM 44.0000 -74.8847 331° Northwest 151 174 8,100  Level Boston Center
Wed 07:31:07 PM 44.0367 -74.9150 329° Northwest 151 174 8,100  Level Boston Center
Wed 07:32:07 PM 44.0736 -74.9483 327° Northwest 151 174 8,100  Level Boston Center
Wed 07:33:07 PM 44.1103 -74.9789 329° Northwest 151 174 8,100 -200 Level Boston Center
Wed 07:34:07 PM 44.1472 -75.0122 327° Northwest 151 174 7,700 -600 Descending Boston Center
Wed 07:35:07 PM 44.1900 -75.0461 330° Northwest 165 190 6,900 -700 Descending Boston Center
Wed 07:36:07 PM 44.2353 -75.0769 334° Northwest 171 197 6,300 -600 Descending Boston Center
Wed 07:37:07 PM 44.2781 -75.1167 326° Northwest 177 204 5,700 -600 Descending Boston Center
Wed 07:38:07 PM 44.3211 -75.1475 333° Northwest 177 204 5,100 -700 Descending Boston Center
Wed 07:39:07 PM 44.3683 -75.1758 337° Northwest 177 204 4,300 -700 Descending Boston Center
Wed 07:40:07 PM 44.4114 -75.2069 333° Northwest 177 204 3,700 -600 Descending Boston Center
Wed 07:41:07 PM 44.4567 -75.2353 336° Northwest 177 204 3,100 -550 Descending Boston Center
Wed 07:42:07 PM 44.4975 -75.2692 329° Northwest 172 198 2,600 -500 Descending Boston Center

Login

Don't have an account? Register now (free) for customized features, flight alerts, and more!